createdAt,value
2018-12-25T00:02:41.623Z,4.2
2018-12-25T00:08:08.431Z,4.2
2018-12-25T00:13:35.277Z,4.2
2018-12-25T00:19:06.162Z,4.3
2018-12-25T00:24:29.932Z,4.3
2018-12-25T00:29:57.769Z,4.3
2018-12-25T00:35:24.574Z,4.2
2018-12-25T00:40:52.417Z,4.2
2018-12-25T00:46:19.221Z,4.2
2018-12-25T00:51:47.084Z,4.3
2018-12-25T00:57:13.858Z,4.3
2018-12-25T01:02:40.794Z,4.4
2018-12-25T01:08:08.535Z,4.4
2018-12-25T01:13:35.369Z,4.5
2018-12-25T01:19:02.235Z,4.5
2018-12-25T01:24:29.053Z,4.5
2018-12-25T01:29:55.903Z,4.5
2018-12-25T01:35:22.767Z,4.5
2018-12-25T01:40:50.811Z,4.5
2018-12-25T01:46:18.448Z,4.5
2018-12-25T01:51:45.287Z,4.4
2018-12-25T01:57:12.096Z,4.4
2018-12-25T02:02:38.952Z,4.4
2018-12-25T02:08:05.877Z,4.4
2018-12-25T02:13:32.700Z,4.4
2018-12-25T02:18:59.468Z,4.5
2018-12-25T02:24:27.260Z,4.5
2018-12-25T02:29:54.096Z,4.5
2018-12-25T02:35:21.957Z,4.5
2018-12-25T02:40:48.802Z,4.5
2018-12-25T02:46:15.647Z,4.5
2018-12-25T02:51:43.477Z,4.5
2018-12-25T02:57:10.307Z,4.5
2018-12-25T03:02:38.156Z,4.5
2018-12-25T03:08:05.041Z,4.5
2018-12-25T03:13:32.896Z,4.5
2018-12-25T03:19:00.776Z,4.5
2018-12-25T03:24:28.626Z,4.5
2018-12-25T03:29:55.402Z,4.4
2018-12-25T03:35:22.232Z,4.4
2018-12-25T03:40:49.076Z,4.5
2018-12-25T03:46:16.913Z,4.5
2018-12-25T03:51:44.821Z,4.5
2018-12-25T03:57:12.625Z,4.5
2018-12-25T04:02:39.437Z,4.5
2018-12-25T04:08:06.280Z,4.6
2018-12-25T04:13:34.163Z,4.6
2018-12-25T04:19:02.049Z,4.6
2018-12-25T04:24:28.878Z,4.6
2018-12-25T04:29:56.704Z,4.7
2018-12-25T04:35:24.552Z,4.7
2018-12-25T04:40:52.417Z,4.6
2018-12-25T04:46:20.258Z,4.6
2018-12-25T04:51:47.119Z,4.6
2018-12-25T04:57:13.945Z,4.6
2018-12-25T05:02:41.839Z,4.6
2018-12-25T05:08:09.674Z,4.6
2018-12-25T05:13:37.498Z,4.6
2018-12-25T05:19:05.339Z,4.6
2018-12-25T05:24:32.537Z,4.7
2018-12-25T05:29:59.140Z,4.7
2018-12-25T05:35:30.995Z,4.6
2018-12-25T05:40:52.758Z,4.6
2018-12-25T05:46:20.602Z,4.6
2018-12-25T05:51:47.479Z,4.6
2018-12-25T05:57:14.302Z,4.5
2018-12-25T06:02:42.212Z,4.5
2018-12-25T06:08:09.023Z,4.5
2018-12-25T06:13:36.893Z,4.5
2018-12-25T06:19:03.701Z,4.5
2018-12-25T06:24:31.618Z,4.5
2018-12-25T06:29:59.410Z,4.6
2018-12-25T06:35:31.232Z,4.6
2018-12-25T06:40:54.133Z,4.6
2018-12-25T06:46:22.041Z,4.7
2018-12-25T06:51:48.795Z,4.7
2018-12-25T06:57:16.663Z,4.7
2018-12-25T07:02:43.499Z,4.7
2018-12-25T07:08:11.366Z,4.7
2018-12-25T07:13:39.280Z,4.7
2018-12-25T07:19:07.131Z,4.7
2018-12-25T07:24:34.000Z,4.7
2018-12-25T07:30:00.851Z,4.7
2018-12-25T07:35:31.507Z,4.7
2018-12-25T07:40:55.537Z,4.6
2018-12-25T07:46:22.457Z,4.6
2018-12-25T07:51:50.259Z,4.6
2018-12-25T07:57:17.130Z,4.6
2018-12-25T08:02:43.991Z,4.6
2018-12-25T08:08:11.809Z,4.7
2018-12-25T08:13:38.652Z,4.7
2018-12-25T08:19:06.508Z,4.8
2018-12-25T08:24:34.420Z,4.9
2018-12-25T08:30:02.399Z,4.9
2018-12-25T08:35:30.454Z,4.9
2018-12-25T08:40:58.072Z,5
2018-12-25T08:46:25.094Z,5
2018-12-25T08:51:52.866Z,5.1
2018-12-25T08:57:20.687Z,5.1
2018-12-25T09:02:48.593Z,5.2
2018-12-25T09:08:15.480Z,5.2
2018-12-25T09:13:42.350Z,5.2
2018-12-25T09:19:10.253Z,5.3
2018-12-25T09:24:37.152Z,5.3
2018-12-25T09:30:05.069Z,5.4
2018-12-25T09:35:32.982Z,5.4
2018-12-25T09:41:00.913Z,5.5
2018-12-25T09:46:27.817Z,5.5
2018-12-25T09:51:54.882Z,5.6
2018-12-25T09:57:21.649Z,5.6
2018-12-25T10:02:48.631Z,5.7
2018-12-25T10:08:15.521Z,5.7
2018-12-25T10:13:42.423Z,5.7
2018-12-25T10:19:10.452Z,5.8
2018-12-25T10:24:37.325Z,5.8
2018-12-25T10:30:04.270Z,5.8
2018-12-25T10:35:32.372Z,5.9
2018-12-25T10:41:00.177Z,5.9
2018-12-25T10:46:27.140Z,5.9
2018-12-25T10:51:55.097Z,5.9
2018-12-25T10:57:23.104Z,6
2018-12-25T11:02:51.018Z,6
2018-12-25T11:08:19.286Z,6.1
2018-12-25T11:13:45.898Z,6.1
2018-12-25T11:19:13.886Z,6.1
2018-12-25T11:24:41.882Z,6.1
2018-12-25T11:30:09.825Z,6.2
2018-12-25T11:35:37.782Z,6.2
2018-12-25T11:41:04.865Z,6.2
2018-12-25T11:46:32.750Z,6.2
2018-12-25T11:51:59.726Z,6.2
2018-12-25T11:57:26.673Z,6.2
2018-12-25T12:02:54.620Z,6.2
2018-12-25T12:08:21.630Z,6.2
2018-12-25T12:13:49.568Z,6.2
2018-12-25T12:19:16.524Z,6.2
2018-12-25T12:24:44.508Z,6.1
2018-12-25T12:30:11.488Z,6.1
2018-12-25T12:35:39.414Z,6.1
2018-12-25T12:41:06.428Z,6.1
2018-12-25T12:46:33.428Z,6.1
2018-12-25T12:52:00.317Z,6.1
2018-12-25T12:57:27.299Z,6.1
2018-12-25T13:02:54.277Z,6.1
2018-12-25T13:08:21.335Z,6.1
2018-12-25T13:13:49.255Z,6.1
2018-12-25T13:19:16.270Z,6.1
2018-12-25T13:24:43.159Z,6.1
2018-12-25T13:30:10.146Z,6.1
2018-12-25T13:35:37.064Z,6.1
2018-12-25T13:41:04.016Z,6
2018-12-25T13:46:31.015Z,6
2018-12-25T13:51:57.989Z,6
2018-12-25T13:57:25.885Z,6
2018-12-25T14:02:53.859Z,6
2018-12-25T14:08:20.882Z,6
2018-12-25T14:13:48.788Z,6
2018-12-25T14:19:15.722Z,5.9
2018-12-25T14:24:43.714Z,5.9
2018-12-25T14:30:11.680Z,5.9
2018-12-25T14:35:38.652Z,5.8
2018-12-25T14:41:06.549Z,5.8
2018-12-25T14:46:34.493Z,5.7
2018-12-25T14:52:01.416Z,5.7
2018-12-25T14:57:29.362Z,5.5
2018-12-25T15:02:57.426Z,5.4
2018-12-25T15:08:25.233Z,5.3
2018-12-25T15:13:53.121Z,5.2
2018-12-25T15:19:21.010Z,5.1
2018-12-25T15:24:53.923Z,5.1
2018-12-25T15:30:16.809Z,5
2018-12-25T15:35:44.704Z,5
2018-12-25T15:41:12.542Z,5
2018-12-25T15:46:39.430Z,5
2018-12-25T15:52:06.342Z,4.9
2018-12-25T15:57:33.169Z,4.8
2018-12-25T16:03:00.039Z,4.8
2018-12-25T16:08:26.975Z,4.7
2018-12-25T16:13:53.739Z,4.7
2018-12-25T16:19:21.743Z,4.6
2018-12-25T16:24:48.544Z,4.6
2018-12-25T16:30:15.306Z,4.6
2018-12-25T16:35:42.228Z,4.6
2018-12-25T16:41:09.132Z,4.7
2018-12-25T16:46:35.954Z,4.7
2018-12-25T16:52:02.725Z,4.6
2018-12-25T16:57:29.561Z,4.6
2018-12-25T17:02:57.440Z,4.6
2018-12-25T17:08:24.328Z,4.7
2018-12-25T17:13:52.162Z,4.7
2018-12-25T17:19:20.042Z,4.7
2018-12-25T17:24:46.911Z,4.8
2018-12-25T17:30:13.765Z,4.8
2018-12-25T17:35:40.706Z,4.8
2018-12-25T17:41:07.515Z,4.8
2018-12-25T17:46:35.394Z,4.8
2018-12-25T17:52:02.221Z,4.9
2018-12-25T17:57:29.176Z,4.9
2018-12-25T18:02:56.960Z,4.9
2018-12-25T18:08:23.874Z,5
2018-12-25T18:13:50.735Z,5
2018-12-25T18:19:17.646Z,5.1
2018-12-25T18:24:44.533Z,5.1
2018-12-25T18:30:12.546Z,5.1
2018-12-25T18:35:40.272Z,5.2
2018-12-25T18:41:07.184Z,5.2
2018-12-25T18:46:35.108Z,5.2
2018-12-25T18:52:02.978Z,5.2
2018-12-25T18:57:29.980Z,5.3
2018-12-25T19:02:57.797Z,5.3
2018-12-25T19:08:24.661Z,5.3
2018-12-25T19:13:51.557Z,5.3
2018-12-25T19:19:18.513Z,5.3
2018-12-25T19:24:46.461Z,5.3
2018-12-25T19:30:14.314Z,5.3
2018-12-25T19:35:42.263Z,5.3
2018-12-25T19:41:10.163Z,5.4
2018-12-25T19:46:37.160Z,5.4
2018-12-25T19:52:04.029Z,5.4
2018-12-25T19:57:30.941Z,5.4
2018-12-25T20:02:58.964Z,5.4
2018-12-25T20:08:25.740Z,5.4
2018-12-25T20:13:53.610Z,5.4
2018-12-25T20:19:20.608Z,5.4
2018-12-25T20:24:52.619Z,5.4
2018-12-25T20:30:15.431Z,5.4
2018-12-25T20:35:43.352Z,5.4
2018-12-25T20:41:11.266Z,5.4
2018-12-25T20:46:38.163Z,5.4
2018-12-25T20:52:06.082Z,5.4
2018-12-25T20:57:32.996Z,5.4
2018-12-25T21:03:00.926Z,5.4
2018-12-25T21:08:28.806Z,5.4
2018-12-25T21:13:55.710Z,5.4
2018-12-25T21:19:23.631Z,5.4
2018-12-25T21:24:51.513Z,5.4
2018-12-25T21:30:19.451Z,5.4
2018-12-25T21:35:46.337Z,5.3
2018-12-25T21:41:13.295Z,5.3
2018-12-25T21:46:40.205Z,5.3
2018-12-25T21:52:08.154Z,5.3
2018-12-25T21:57:34.979Z,5.3
2018-12-25T22:03:02.867Z,5.3
2018-12-25T22:08:30.837Z,5.3
2018-12-25T22:13:58.657Z,5.3
2018-12-25T22:19:26.604Z,5.3
2018-12-25T22:24:53.514Z,5.3
2018-12-25T22:30:21.551Z,5.3
2018-12-25T22:35:48.321Z,5.4
2018-12-25T22:41:16.285Z,5.4
2018-12-25T22:46:44.117Z,5.4
2018-12-25T22:52:11.089Z,5.4
2018-12-25T22:57:37.938Z,5.4
2018-12-25T23:03:05.900Z,5.5
2018-12-25T23:08:33.824Z,5.5
2018-12-25T23:14:00.691Z,5.5
2018-12-25T23:19:28.588Z,5.5
2018-12-25T23:24:55.555Z,5.6
2018-12-25T23:30:23.452Z,5.6
2018-12-25T23:35:51.412Z,5.6
2018-12-25T23:41:19.331Z,5.6
2018-12-25T23:46:47.256Z,5.6
2018-12-25T23:52:15.126Z,5.7
2018-12-25T23:57:42.092Z,5.7
